Time;durP1;ratioP1;P1;durP2;ratioP2;P2;SDS_P1;SDS_P2;PMS_P1;PMS_P2;Temp;Humidity;BMP_temperature;BMP_pressure;BME280_temperature;BME280_humidity;BME280_pressure;Samples;Min_cycle;Max_cycle;Signal;HPM_P1;HPM_P2
2021/01/15 00:01:13;;;;;;;1.00;0.90;;;;;;;-0.87;100.00;99392.26;3800123;77;383604;-75
2021/01/15 00:06:34;;;;;;;1.20;1.10;;;;;;;-0.85;100.00;99391.39;3773721;76;383580;-75
2021/01/15 00:11:56;;;;;;;1.43;1.20;;;;;;;-0.79;100.00;99388.23;3799766;77;383772;-75
2021/01/15 00:17:17;;;;;;;1.23;0.80;;;;;;;-0.78;100.00;99395.22;3799724;77;394049;-75
2021/01/15 00:22:43;;;;;;;0.80;0.50;;;;;;;-0.74;100.00;99389.41;3800198;77;383809;-75
2021/01/15 00:28:05;;;;;;;1.10;0.77;;;;;;;-0.68;100.00;99384.08;3799766;77;391895;-75
2021/01/15 00:33:27;;;;;;;3.70;0.80;;;;;;;-0.63;100.00;99384.71;3800150;77;383561;-75
2021/01/15 00:38:50;;;;;;;1.43;1.33;;;;;;;-0.63;100.00;99383.36;3799754;77;387747;-75
2021/01/15 00:44:13;;;;;;;4.40;1.43;;;;;;;-0.65;100.00;99379.39;3799569;77;387713;-75
2021/01/15 00:49:35;;;;;;;1.77;0.50;;;;;;;-0.61;100.00;99384.41;3800085;77;383576;-75
2021/01/15 00:54:57;;;;;;;1.23;0.50;;;;;;;-0.54;100.00;99384.16;3800319;77;383558;-75
2021/01/15 01:00:20;;;;;;;2.30;1.23;;;;;;;-0.54;100.00;99390.91;3799350;77;394983;-75
2021/01/15 01:05:41;;;;;;;2.03;1.33;;;;;;;-0.50;100.00;99383.77;3799630;77;383777;-75
2021/01/15 01:11:03;;;;;;;1.23;0.90;;;;;;;-0.52;100.00;99391.39;3799891;77;383776;-75
2021/01/15 01:16:25;;;;;;;0.80;0.40;;;;;;;-0.60;100.00;99394.89;3800432;77;383572;-75
2021/01/15 01:21:47;;;;;;;1.80;0.90;;;;;;;-0.70;100.00;99397.91;3799457;77;394194;-75
2021/01/15 01:27:08;;;;;;;0.87;0.70;;;;;;;-0.79;100.00;99411.97;3800470;77;383557;-76
2021/01/15 01:32:29;;;;;;;0.90;0.80;;;;;;;-0.93;100.00;99401.64;3799991;77;391910;-76
2021/01/15 01:37:50;;;;;;;2.03;1.27;;;;;;;-1.01;100.00;99410.52;3799647;77;394063;-76
2021/01/15 01:43:11;;;;;;;0.80;0.50;;;;;;;-1.17;100.00;99414.22;3800250;77;383847;-76
2021/01/15 01:48:35;;;;;;;1.27;1.17;;;;;;;-1.21;100.00;99417.89;3799949;77;387825;-76
2021/01/15 01:53:56;;;;;;;6.50;1.13;;;;;;;-1.27;100.00;99420.47;3800791;76;383785;-76
2021/01/15 01:59:17;;;;;;;1.03;0.93;;;;;;;-1.31;100.00;99417.61;3800084;77;383536;-76
2021/01/15 02:04:40;;;;;;;0.90;0.60;;;;;;;-1.40;100.00;99428.14;3799888;77;387926;-76
2021/01/15 02:10:22;;;;;;;3.27;1.67;;;;;;;-1.46;100.00;99427.48;3799459;77;389997;-76
2021/01/15 02:15:53;;;;;;;2.50;0.70;;;;;;;-1.47;100.00;99434.55;3799702;77;391855;-76
2021/01/15 02:21:37;;;;;;;1.33;1.23;;;;;;;-1.54;100.00;99439.61;3800552;76;392181;-76
2021/01/15 02:27:38;;;;;;;0.97;0.77;;;;;;;-1.51;100.00;99443.83;3800398;77;383565;-76
2021/01/15 02:33:20;;;;;;;1.67;1.23;;;;;;;-1.58;100.00;99441.33;3800424;76;395048;-76
2021/01/15 02:38:55;;;;;;;0.80;0.47;;;;;;;-1.66;100.00;99448.83;3801025;77;383899;-76
2021/01/15 02:44:18;;;;;;;1.40;1.10;;;;;;;-1.72;100.00;99451.96;3799600;77;388029;-76
2021/01/15 02:49:43;;;;;;;1.20;1.10;;;;;;;-1.77;100.00;99459.63;3772232;77;392129;-76
2021/01/15 02:55:04;;;;;;;0.90;0.80;;;;;;;-1.86;100.00;99462.86;3800559;77;391977;-76
2021/01/15 03:00:25;;;;;;;1.80;1.70;;;;;;;-2.08;100.00;99459.39;3799417;77;394004;-76
2021/01/15 03:05:53;;;;;;;1.20;0.77;;;;;;;-2.20;100.00;99464.53;3800143;77;383584;-76
2021/01/15 03:11:16;;;;;;;0.90;0.70;;;;;;;-2.26;100.00;99469.24;3801462;76;383871;-76
2021/01/15 03:16:40;;;;;;;1.30;1.20;;;;;;;-2.33;100.00;99472.14;3799530;77;389772;-77
2021/01/15 03:22:17;;;;;;;1.07;0.97;;;;;;;-2.44;100.00;99476.73;3799625;77;383560;-77
2021/01/15 03:27:55;;;;;;;0.80;0.40;;;;;;;-2.51;100.00;99480.40;3800074;77;383565;-77
2021/01/15 03:33:18;;;;;;;5.00;1.33;;;;;;;-2.55;100.00;99483.44;3799204;77;389866;-77
2021/01/15 03:38:39;;;;;;;1.80;1.67;;;;;;;-2.71;100.00;99491.61;3799697;77;383832;-77
2021/01/15 03:44:00;;;;;;;1.43;1.33;;;;;;;-2.64;100.00;99490.64;3799629;77;383565;-77
2021/01/15 03:49:22;;;;;;;1.00;0.83;;;;;;;-2.77;100.00;99509.77;3799708;77;383564;-77
2021/01/15 03:54:43;;;;;;;0.90;0.67;;;;;;;-2.93;100.00;99506.37;3800086;77;385891;-77
2021/01/15 04:00:08;;;;;;;0.97;0.80;;;;;;;-2.88;100.00;99508.95;3799813;77;383816;-77
2021/01/15 04:05:29;;;;;;;0.90;0.63;;;;;;;-2.92;100.00;99518.73;3799923;77;387724;-77
2021/01/15 04:10:50;;;;;;;1.80;1.70;;;;;;;-3.02;100.00;99518.94;3798721;77;396032;-77
2021/01/15 04:16:16;;;;;;;3.57;1.90;;;;;;;-2.97;100.00;99518.82;3799046;77;392143;-77
2021/01/15 04:21:38;;;;;;;1.20;0.73;;;;;;;-3.18;100.00;99531.11;3799360;77;391973;-77
2021/01/15 04:27:00;;;;;;;1.00;0.80;;;;;;;-3.25;100.00;99533.40;3800353;77;383580;-77
2021/01/15 04:32:23;;;;;;;0.80;0.50;;;;;;;-3.26;100.00;99533.14;3800189;77;383565;-77
2021/01/15 04:37:51;;;;;;;1.27;1.17;;;;;;;-3.27;100.00;99533.45;3800259;77;383804;-77
2021/01/15 04:43:13;;;;;;;1.00;0.90;;;;;;;-3.34;100.00;99529.81;3800502;77;392221;-77
2021/01/15 04:48:35;;;;;;;1.00;0.90;;;;;;;-3.32;100.00;99533.53;3801054;76;385651;-76
2021/01/15 04:54:04;;;;;;;4.60;0.83;;;;;;;-3.16;100.00;99536.43;3799831;77;388755;-76
2021/01/15 04:59:28;;;;;;;0.80;0.50;;;;;;;-3.15;100.00;99538.03;3800148;77;383804;-77
2021/01/15 05:04:50;;;;;;;7.20;1.63;;;;;;;-3.10;100.00;99538.48;3798982;77;392201;-76
2021/01/15 05:10:13;;;;;;;2.57;2.40;;;;;;;-3.12;100.00;99546.05;3799923;77;383577;-76
2021/01/15 05:15:37;;;;;;;1.47;1.37;;;;;;;-3.22;100.00;99555.65;3798557;76;394040;-76
2021/01/15 05:20:57;;;;;;;1.47;0.83;;;;;;;-3.28;100.00;99562.79;3799528;77;394248;-77
2021/01/15 05:26:19;;;;;;;2.90;2.63;;;;;;;-3.30;100.00;99564.41;3798987;77;396120;-76
2021/01/15 05:31:50;;;;;;;0.80;0.50;;;;;;;-3.26;100.00;99568.11;3800514;77;383895;-76
2021/01/15 05:37:14;;;;;;;1.43;1.33;;;;;;;-3.29;100.00;99575.42;3799555;77;392084;-76
2021/01/15 05:42:47;;;;;;;3.43;1.17;;;;;;;-3.33;100.00;99585.20;3800628;77;394000;-77
2021/01/15 05:48:08;;;;;;;0.80;0.50;;;;;;;-3.30;100.00;99589.96;3800230;77;383583;-76
2021/01/15 05:53:35;;;;;;;0.80;0.40;;;;;;;-3.30;100.00;99607.45;3800305;77;383774;-76
2021/01/15 05:59:17;;;;;;;1.53;0.83;;;;;;;-3.33;100.00;99608.59;3800743;76;383600;-76
2021/01/15 06:04:40;;;;;;;0.93;0.83;;;;;;;-3.20;100.00;99615.34;3801165;76;387716;-77
2021/01/15 06:10:02;;;;;;;0.90;0.60;;;;;;;-3.10;100.00;99613.81;3800716;77;383816;-76
2021/01/15 06:15:23;;;;;;;1.17;0.90;;;;;;;-3.12;100.00;99616.00;3799784;77;394029;-76
2021/01/15 06:20:46;;;;;;;1.43;1.33;;;;;;;-3.08;100.00;99621.05;3799864;77;383777;-76
2021/01/15 06:26:09;;;;;;;0.80;0.50;;;;;;;-3.02;100.00;99627.92;3801070;76;383565;-76
2021/01/15 06:31:34;;;;;;;0.80;0.60;;;;;;;-3.04;100.00;99638.18;3801086;76;383573;-76
2021/01/15 06:36:56;;;;;;;1.13;0.90;;;;;;;-3.06;100.00;99641.17;3800322;77;391891;-76
2021/01/15 06:42:18;;;;;;;1.43;1.33;;;;;;;-3.07;100.00;99638.79;3798619;77;396384;-76
2021/01/15 06:47:42;;;;;;;4.20;1.20;;;;;;;-3.01;100.00;99647.02;3799684;77;383580;-76
2021/01/15 06:53:22;;;;;;;0.80;0.60;;;;;;;-2.94;100.00;99652.80;3800192;77;383564;-76
2021/01/15 06:58:45;;;;;;;0.80;0.50;;;;;;;-2.96;100.00;99655.80;3800115;77;383765;-76
2021/01/15 07:04:29;;;;;;;0.90;0.73;;;;;;;-2.83;100.00;99664.98;3800376;77;383564;-76
2021/01/15 07:09:50;;;;;;;2.57;2.47;;;;;;;-2.80;100.00;99671.09;3800342;76;383808;-76
2021/01/15 07:15:16;;;;;;;1.30;0.63;;;;;;;-2.81;100.00;99680.27;3799897;77;383565;-76
2021/01/15 07:20:40;;;;;;;1.00;0.80;;;;;;;-2.82;100.00;99680.01;3799544;77;391903;-76
2021/01/15 07:26:05;;;;;;;5.23;1.33;;;;;;;-2.78;100.00;99687.19;3800310;76;392940;-76
2021/01/15 07:31:28;;;;;;;4.63;1.07;;;;;;;-2.72;100.00;99687.38;3799302;77;396079;-76
2021/01/15 07:36:50;;;;;;;0.90;0.60;;;;;;;-2.57;100.00;99692.98;3800165;77;387783;-76
2021/01/15 07:42:11;;;;;;;1.37;1.27;;;;;;;-2.59;100.00;99692.52;3799553;77;391871;-76
2021/01/15 07:47:37;;;;;;;1.00;0.80;;;;;;;-2.48;100.00;99700.62;3799470;77;392252;-76
2021/01/15 07:53:24;;;;;;;0.80;0.50;;;;;;;-2.32;100.00;99699.47;3801033;76;383863;-76
2021/01/15 07:58:47;;;;;;;0.80;0.50;;;;;;;-2.31;100.00;99707.80;3800020;77;383772;-76
2021/01/15 08:04:08;;;;;;;5.80;1.43;;;;;;;-2.23;100.00;99720.58;3798956;77;395071;-76
2021/01/15 08:09:33;;;;;;;1.53;1.43;;;;;;;-2.15;100.00;99725.26;3799598;77;383815;-75
2021/01/15 08:14:54;;;;;;;3.10;1.60;;;;;;;-2.05;100.00;99729.09;3800001;77;396436;-75
2021/01/15 08:20:16;;;;;;;5.53;0.90;;;;;;;-1.82;100.00;99734.80;3799587;77;388770;-74
2021/01/15 08:25:37;;;;;;;1.23;1.13;;;;;;;-1.63;100.00;99734.64;3799769;77;383568;-75
2021/01/15 08:31:06;;;;;;;0.80;0.50;;;;;;;-1.60;100.00;99741.58;3800064;77;383580;-75
2021/01/15 08:36:27;;;;;;;2.43;1.07;;;;;;;-1.47;100.00;99746.14;3800335;77;391085;-75
2021/01/15 08:41:59;;;;;;;0.80;0.50;;;;;;;-1.39;100.00;99756.21;3800241;77;383568;-75
2021/01/15 08:47:24;;;;;;;1.27;0.70;;;;;;;-1.32;100.00;99753.89;3800822;77;386717;-75
2021/01/15 08:52:48;;;;;;;2.50;2.40;;;;;;;-1.25;100.00;99765.05;3799220;77;383761;-74
2021/01/15 08:58:09;;;;;;;1.00;0.70;;;;;;;-1.17;100.00;99773.20;3773241;77;391917;-75
2021/01/15 09:03:32;;;;;;;2.07;1.13;;;;;;;-1.12;100.00;99784.42;3798669;77;394277;-75
2021/01/15 09:08:55;;;;;;;1.37;1.27;;;;;;;-1.14;100.00;99795.55;3799268;77;394227;-75
2021/01/15 09:14:20;;;;;;;0.80;0.50;;;;;;;-1.05;100.00;99788.88;3800313;77;383564;-75
2021/01/15 09:19:43;;;;;;;0.80;0.70;;;;;;;-1.03;100.00;99796.09;3801130;77;383556;-75
2021/01/15 09:25:04;;;;;;;2.60;1.40;;;;;;;-0.91;100.00;99803.89;3799143;77;396368;-75
2021/01/15 09:30:26;;;;;;;1.77;0.80;;;;;;;-0.73;100.00;99802.91;3799653;77;388727;-75
2021/01/15 09:35:48;;;;;;;1.63;1.03;;;;;;;-0.81;100.00;99819.07;3799455;77;391891;-75
2021/01/15 09:41:10;;;;;;;5.00;1.20;;;;;;;-0.73;100.00;99830.70;3799922;77;389858;-74
2021/01/15 09:46:31;;;;;;;0.80;0.60;;;;;;;-0.64;100.00;99834.27;3800500;77;383573;-74
2021/01/15 09:51:54;;;;;;;1.27;0.90;;;;;;;-0.50;100.00;99838.25;3800182;77;383584;-75
2021/01/15 09:57:15;;;;;;;3.57;1.57;;;;;;;-0.30;100.00;99845.86;3799546;77;394246;-74
2021/01/15 10:02:36;;;;;;;3.07;2.10;;;;;;;-0.23;99.20;99853.75;3798976;77;394987;-74
2021/01/15 10:07:58;;;;;;;6.90;2.50;;;;;;;-0.12;100.00;99860.50;3799491;77;391930;-74
2021/01/15 10:13:20;;;;;;;0.80;0.50;;;;;;;-0.17;100.00;99859.30;3800243;77;383572;-74
2021/01/15 10:18:42;;;;;;;1.10;1.00;;;;;;;-0.01;100.00;99862.62;3799678;77;383564;-74
2021/01/15 10:24:09;;;;;;;1.30;0.80;;;;;;;-0.06;100.00;99854.41;3800077;77;391866;-74
2021/01/15 10:29:30;;;;;;;0.80;0.60;;;;;;;0.12;100.00;99867.69;3800469;77;383777;-74
2021/01/15 10:34:51;;;;;;;0.80;0.60;;;;;;;0.15;100.00;99859.74;3800142;77;383557;-74
2021/01/15 10:40:13;;;;;;;1.00;0.90;;;;;;;0.24;100.00;99857.87;3800161;77;385859;-73
2021/01/15 10:45:34;;;;;;;2.10;1.33;;;;;;;0.50;100.00;99854.69;3799135;77;394268;-73
2021/01/15 10:50:55;;;;;;;1.00;0.90;;;;;;;0.52;100.00;99851.66;3799427;77;391912;-74
2021/01/15 10:56:17;;;;;;;1.87;1.17;;;;;;;0.52;100.00;99853.83;3799408;77;390182;-73
2021/01/15 11:01:42;;;;;;;2.60;1.63;;;;;;;0.63;100.00;99852.41;3799595;77;392092;-73
2021/01/15 11:07:05;;;;;;;3.10;2.90;;;;;;;0.72;100.00;99853.78;3797792;77;383581;-73
2021/01/15 11:12:27;;;;;;;1.53;1.13;;;;;;;0.75;100.00;99851.78;3799461;77;396088;-73
2021/01/15 11:17:49;;;;;;;7.47;1.93;;;;;;;0.78;100.00;99854.11;3799281;77;396336;-73
2021/01/15 11:23:12;;;;;;;1.73;1.63;;;;;;;0.82;100.00;99852.34;3798674;77;392893;-73
2021/01/15 11:28:33;;;;;;;1.80;1.70;;;;;;;0.94;100.00;99850.37;3800122;76;391953;-73
2021/01/15 11:33:54;;;;;;;4.33;2.67;;;;;;;1.12;100.00;99855.50;3799573;77;383616;-74
2021/01/15 11:39:16;;;;;;;5.17;1.43;;;;;;;1.27;100.00;99856.36;3798967;77;395029;-73
2021/01/15 11:44:37;;;;;;;1.37;1.27;;;;;;;1.53;100.00;99856.33;3799488;77;383805;-73
2021/01/15 11:49:59;;;;;;;2.00;1.90;;;;;;;1.57;100.00;99853.23;3799029;77;388002;-73
2021/01/15 11:55:22;;;;;;;4.83;1.03;;;;;;;1.46;100.00;99851.38;3798769;77;394429;-73
2021/01/15 12:00:43;;;;;;;1.13;0.70;;;;;;;1.46;100.00;99847.89;3799504;77;387770;-73
2021/01/15 12:06:06;;;;;;;0.90;0.60;;;;;;;1.54;100.00;99841.09;3799710;77;387746;-74
2021/01/15 12:11:30;;;;;;;5.27;2.00;;;;;;;1.42;100.00;99844.22;3798691;77;394021;-73
2021/01/15 12:16:50;;;;;;;1.60;1.30;;;;;;;1.28;100.00;99849.83;3800065;77;396335;-73
2021/01/15 12:22:13;;;;;;;2.13;1.67;;;;;;;1.08;100.00;99845.04;3799329;77;383572;-73
2021/01/15 12:27:36;;;;;;;2.87;1.50;;;;;;;1.05;100.00;99841.60;3799387;77;389780;-74
2021/01/15 12:32:57;;;;;;;2.23;1.23;;;;;;;0.97;100.00;99839.69;3799131;77;394001;-74
2021/01/15 12:38:23;;;;;;;1.93;1.83;;;;;;;1.02;100.00;99836.84;3799006;77;392130;-74
2021/01/15 12:43:44;;;;;;;1.20;1.10;;;;;;;1.09;100.00;99842.58;3799403;77;391977;-73
2021/01/15 12:49:05;;;;;;;2.20;2.10;;;;;;;1.11;100.00;99844.95;3799019;77;396132;-73
2021/01/15 12:54:27;;;;;;;1.40;1.00;;;;;;;1.16;100.00;99842.89;3799296;77;391950;-73
2021/01/15 12:59:48;;;;;;;4.07;3.77;;;;;;;1.23;100.00;99836.42;3798866;77;396311;-73
2021/01/15 13:05:11;;;;;;;1.00;0.90;;;;;;;1.37;100.00;99830.30;3799953;77;383545;-73
2021/01/15 13:10:33;;;;;;;1.40;0.93;;;;;;;1.36;100.00;99834.12;3799433;77;394221;-73
2021/01/15 13:15:55;;;;;;;3.37;2.73;;;;;;;1.51;100.00;99836.33;3798900;77;396128;-74
2021/01/15 13:21:18;;;;;;;1.10;1.00;;;;;;;1.47;100.00;99843.49;3798970;77;391946;-74
2021/01/15 13:26:39;;;;;;;2.93;2.73;;;;;;;1.50;100.00;99840.69;3798552;77;396096;-73
2021/01/15 13:32:00;;;;;;;2.10;1.90;;;;;;;1.54;100.00;99842.44;3798922;77;396462;-74
2021/01/15 13:37:22;;;;;;;3.73;1.60;;;;;;;1.49;100.00;99852.11;3798938;77;396080;-73
2021/01/15 13:42:43;;;;;;;3.03;2.30;;;;;;;1.47;100.00;99854.34;3798830;77;396109;-73
2021/01/15 13:48:05;;;;;;;1.03;0.93;;;;;;;1.44;100.00;99866.38;3799558;77;392192;-73
2021/01/15 13:53:27;;;;;;;4.00;3.70;;;;;;;1.53;100.00;99863.92;3798996;77;396072;-73
2021/01/15 13:58:48;;;;;;;1.83;1.73;;;;;;;1.44;100.00;99878.58;3772080;77;396040;-74
2021/01/15 14:04:09;;;;;;;1.43;0.93;;;;;;;1.48;100.00;99878.20;3799440;77;394296;-73
2021/01/15 14:09:30;;;;;;;1.53;1.43;;;;;;;1.45;100.00;99877.47;3799418;77;391854;-73
2021/01/15 14:14:51;;;;;;;2.13;1.77;;;;;;;1.39;100.00;99888.24;3799178;77;392983;-74
2021/01/15 14:20:12;;;;;;;2.40;2.20;;;;;;;1.43;100.00;99887.83;3798924;77;395038;-74
2021/01/15 14:25:34;;;;;;;2.70;1.33;;;;;;;1.40;100.00;99892.55;3798865;77;396124;-74
2021/01/15 14:30:55;;;;;;;7.30;2.97;;;;;;;1.36;100.00;99897.00;3798893;77;396324;-74
2021/01/15 14:36:16;;;;;;;7.27;2.73;;;;;;;1.36;100.00;99906.48;3799131;77;396171;-74
2021/01/15 14:41:46;;;;;;;6.70;3.90;;;;;;;1.30;100.00;99905.06;3772787;77;389137;-74
2021/01/15 14:47:07;;;;;;;1.53;1.43;;;;;;;1.22;100.00;99908.56;3799365;77;392118;-74
2021/01/15 14:52:30;;;;;;;2.63;2.43;;;;;;;1.27;100.00;99909.22;3798982;77;395355;-74
2021/01/15 14:57:51;;;;;;;1.87;0.87;;;;;;;1.21;100.00;99917.23;3799655;77;383588;-74
2021/01/15 15:03:12;;;;;;;1.23;1.13;;;;;;;1.11;100.00;99922.17;3799135;77;396132;-74
2021/01/15 15:08:36;;;;;;;2.20;1.37;;;;;;;1.17;100.00;99932.55;3798946;77;396118;-74
2021/01/15 15:13:59;;;;;;;3.43;1.83;;;;;;;1.15;100.00;99941.55;3799110;77;396273;-74
2021/01/15 15:19:21;;;;;;;2.60;2.20;;;;;;;0.88;100.00;99941.84;3799879;77;395011;-74
2021/01/15 15:24:42;;;;;;;4.97;1.63;;;;;;;0.95;100.00;99946.23;3799100;77;396138;-73
2021/01/15 15:30:05;;;;;;;8.00;2.70;;;;;;;1.03;100.00;99950.87;3799350;77;393953;-74
2021/01/15 15:35:26;;;;;;;3.70;1.17;;;;;;;1.01;100.00;99946.88;3798864;77;396315;-73
2021/01/15 15:40:50;;;;;;;3.47;1.37;;;;;;;0.96;100.00;99951.08;3798972;77;396129;-74
2021/01/15 15:46:18;;;;;;;4.30;2.40;;;;;;;0.94;100.00;99949.23;3800518;77;386654;-74
2021/01/15 15:51:40;;;;;;;1.00;0.80;;;;;;;0.86;100.00;99962.20;3799838;77;383796;-74
2021/01/15 15:57:01;;;;;;;4.30;2.10;;;;;;;0.90;100.00;99969.38;3798810;77;396155;-74
2021/01/15 16:02:24;;;;;;;5.70;2.13;;;;;;;0.86;100.00;99971.67;3798983;77;394293;-75
2021/01/15 16:07:45;;;;;;;2.80;1.67;;;;;;;0.86;100.00;99980.61;3799486;77;391890;-74
2021/01/15 16:13:08;;;;;;;2.57;2.43;;;;;;;0.87;100.00;99984.92;3799042;77;396058;-74
2021/01/15 16:18:29;;;;;;;1.73;1.63;;;;;;;0.91;100.00;99989.94;3798886;77;393156;-74
2021/01/15 16:23:52;;;;;;;0.90;0.60;;;;;;;0.87;100.00;99997.11;3800099;77;383801;-74
2021/01/15 16:29:13;;;;;;;3.87;3.57;;;;;;;0.79;100.00;99996.53;3772428;77;396080;-75
2021/01/15 16:34:37;;;;;;;4.00;3.53;;;;;;;0.61;100.00;99995.96;3799142;77;396277;-75
2021/01/15 16:40:01;;;;;;;2.57;1.83;;;;;;;0.50;100.00;100008.98;3798876;77;396357;-75
2021/01/15 16:45:22;;;;;;;1.27;1.17;;;;;;;0.44;100.00;100004.00;3799875;77;389800;-75
2021/01/15 16:50:44;;;;;;;1.73;1.23;;;;;;;0.49;100.00;100010.08;3799685;77;395366;-75
2021/01/15 16:56:05;;;;;;;1.77;1.53;;;;;;;0.59;100.00;100011.71;3799249;77;396351;-75
2021/01/15 17:01:27;;;;;;;3.60;3.30;;;;;;;0.47;100.00;100016.92;3798790;77;396347;-75
2021/01/15 17:06:50;;;;;;;12.13;2.13;;;;;;;0.61;100.00;100016.27;3799011;77;396060;-75
2021/01/15 17:12:19;;;;;;;1.70;1.60;;;;;;;0.61;100.00;100021.69;3800499;76;388011;-74
2021/01/15 17:17:43;;;;;;;2.80;2.07;;;;;;;0.81;100.00;100026.78;3798823;77;396076;-75
2021/01/15 17:23:06;;;;;;;3.13;1.57;;;;;;;0.76;100.00;100027.50;3772034;77;396128;-74
2021/01/15 17:28:27;;;;;;;1.17;1.07;;;;;;;0.78;100.00;100030.13;3799828;77;388025;-75
2021/01/15 17:33:53;;;;;;;1.20;1.10;;;;;;;0.72;100.00;100033.28;3799741;77;385663;-75
2021/01/15 17:39:14;;;;;;;3.63;0.97;;;;;;;0.65;100.00;100037.56;3773599;77;383593;-75
2021/01/15 17:44:36;;;;;;;3.37;1.20;;;;;;;0.71;100.00;100039.80;3798859;77;396352;-75
2021/01/15 17:49:58;;;;;;;1.17;1.00;;;;;;;0.55;100.00;100046.73;3799930;77;383776;-75
2021/01/15 17:55:19;;;;;;;2.30;2.20;;;;;;;0.43;100.00;100047.88;3799522;77;391902;-75
2021/01/15 18:00:42;;;;;;;3.23;3.03;;;;;;;0.31;100.00;100045.48;3799272;77;396029;-75
2021/01/15 18:06:03;;;;;;;1.53;1.43;;;;;;;0.29;100.00;100049.83;3799231;77;396143;-75
2021/01/15 18:11:24;;;;;;;2.70;1.53;;;;;;;0.32;100.00;100053.28;3772086;77;396062;-74
2021/01/15 18:16:44;;;;;;;12.83;3.30;;;;;;;0.34;100.00;100058.38;3799370;77;396304;-74
2021/01/15 18:22:05;;;;;;;1.40;1.30;;;;;;;0.21;100.00;100061.97;3771954;77;396371;-74
2021/01/15 18:27:27;;;;;;;2.57;1.97;;;;;;;0.17;100.00;100069.08;3799197;77;396130;-74
2021/01/15 18:32:52;;;;;;;2.50;2.23;;;;;;;0.09;100.00;100071.17;3798710;77;396374;-75
2021/01/15 18:38:22;;;;;;;2.30;2.17;;;;;;;0.11;100.00;100085.20;3799496;77;392154;-75
2021/01/15 18:43:43;;;;;;;1.83;1.00;;;;;;;0.17;100.00;100087.48;3772702;77;394062;-74
2021/01/15 18:49:07;;;;;;;1.10;1.00;;;;;;;0.12;100.00;100093.00;3799532;77;395015;-75
2021/01/15 18:54:28;;;;;;;3.83;3.40;;;;;;;0.14;100.00;100090.79;3798870;77;396151;-74
2021/01/15 18:59:50;;;;;;;1.33;0.80;;;;;;;0.04;100.00;100090.23;3772322;77;394029;-74
2021/01/15 19:05:12;;;;;;;1.80;1.03;;;;;;;0.08;100.00;100092.59;3799554;77;393386;-75
2021/01/15 19:10:36;;;;;;;0.90;0.73;;;;;;;0.06;100.00;100094.80;3799933;77;383577;-75
2021/01/15 19:15:57;;;;;;;1.43;1.33;;;;;;;0.16;100.00;100097.27;3799378;77;396292;-74
2021/01/15 19:21:18;;;;;;;2.73;2.63;;;;;;;0.10;100.00;100095.77;3799562;77;391874;-74
2021/01/15 19:26:40;;;;;;;1.40;1.23;;;;;;;0.10;100.00;100102.53;3771267;77;396155;-75
2021/01/15 19:32:01;;;;;;;1.20;1.10;;;;;;;-0.02;100.00;100098.77;3799310;77;391895;-75
2021/01/15 19:37:22;;;;;;;4.97;2.83;;;;;;;0.12;100.00;100097.62;3799381;77;396115;-75
2021/01/15 19:42:43;;;;;;;1.90;1.37;;;;;;;0.07;100.00;100102.59;3799281;77;394557;-74
2021/01/15 19:48:06;;;;;;;1.53;0.97;;;;;;;0.05;100.00;100104.02;3800085;77;383573;-74
2021/01/15 19:53:28;;;;;;;2.27;1.30;;;;;;;0.13;100.00;100108.13;3772503;77;383831;-74
2021/01/15 19:58:50;;;;;;;1.43;1.33;;;;;;;0.22;100.00;100096.03;3800107;77;396037;-75
2021/01/15 20:04:11;;;;;;;2.60;2.07;;;;;;;0.33;100.00;100099.54;3799213;77;395079;-75
2021/01/15 20:09:33;;;;;;;1.67;1.20;;;;;;;0.47;100.00;100101.61;3799417;77;395079;-74
2021/01/15 20:14:54;;;;;;;4.13;2.50;;;;;;;0.35;100.00;100104.63;3796098;77;396105;-75
2021/01/15 20:20:17;;;;;;;1.93;1.27;;;;;;;0.30;100.00;100111.53;3799040;77;396029;-75
2021/01/15 20:25:39;;;;;;;1.93;1.80;;;;;;;0.25;100.00;100107.58;3798949;77;391929;-75
2021/01/15 20:31:00;;;;;;;3.40;1.30;;;;;;;0.26;100.00;100114.59;3799828;77;383843;-75
2021/01/15 20:36:25;;;;;;;1.93;1.77;;;;;;;0.05;100.00;100118.89;3798734;77;396040;-75
2021/01/15 20:41:45;;;;;;;2.50;2.30;;;;;;;0.08;100.00;100116.94;3800198;77;396474;-75
2021/01/15 20:47:06;;;;;;;1.63;1.53;;;;;;;0.17;100.00;100119.95;3798657;77;392166;-75
2021/01/15 20:52:27;;;;;;;2.17;1.97;;;;;;;0.36;97.30;100111.11;3799130;77;391934;-75
2021/01/15 20:58:01;;;;;;;1.53;1.37;;;;;;;0.22;98.21;100119.03;3799532;77;391945;-74
2021/01/15 21:03:23;;;;;;;8.33;1.70;;;;;;;0.35;97.39;100117.63;3799062;77;393964;-75
2021/01/15 21:08:45;;;;;;;2.80;1.27;;;;;;;0.31;95.44;100114.49;3799213;77;396068;-75
2021/01/15 21:14:08;;;;;;;1.40;0.90;;;;;;;0.15;97.57;100118.66;3799379;77;395536;-75
2021/01/15 21:19:30;;;;;;;3.27;1.77;;;;;;;0.22;98.14;100120.38;3799403;77;396151;-75
2021/01/15 21:24:51;;;;;;;1.53;1.43;;;;;;;0.26;97.69;100122.70;3799332;77;391921;-74
2021/01/15 21:30:14;;;;;;;4.33;1.60;;;;;;;0.14;100.00;100121.11;3799453;77;394366;-75
2021/01/15 21:35:35;;;;;;;2.07;1.13;;;;;;;0.19;99.67;100119.63;3799482;77;394998;-75
2021/01/15 21:40:58;;;;;;;0.80;0.60;;;;;;;0.27;99.13;100124.31;3800127;77;383777;-75
2021/01/15 21:46:19;;;;;;;1.60;1.37;;;;;;;0.20;100.00;100126.65;3799454;77;396407;-75
2021/01/15 21:51:49;;;;;;;1.10;1.00;;;;;;;0.11;100.00;100125.23;3799655;77;391945;-75
2021/01/15 21:57:12;;;;;;;2.50;0.93;;;;;;;0.27;99.74;100127.02;3800231;76;395115;-75
2021/01/15 22:02:34;;;;;;;2.37;0.97;;;;;;;0.23;99.81;100136.30;3799405;77;390051;-75
2021/01/15 22:08:01;;;;;;;1.07;0.80;;;;;;;0.18;99.87;100136.44;3799867;77;391878;-75
2021/01/15 22:13:24;;;;;;;0.93;0.83;;;;;;;0.12;100.00;100148.45;3800943;77;383793;-74
2021/01/15 22:18:48;;;;;;;0.90;0.70;;;;;;;0.20;100.00;100140.96;3800430;77;383963;-75
2021/01/15 22:24:10;;;;;;;1.90;1.80;;;;;;;0.22;100.00;100143.38;3799889;77;396284;-75
2021/01/15 22:29:31;;;;;;;1.63;0.70;;;;;;;0.20;100.00;100142.88;3800021;77;386650;-75
2021/01/15 22:34:52;;;;;;;1.43;0.67;;;;;;;0.17;100.00;100139.42;3772789;77;387829;-75
2021/01/15 22:40:13;;;;;;;2.80;0.70;;;;;;;0.21;100.00;100145.84;3799890;77;388719;-75
2021/01/15 22:45:34;;;;;;;3.07;2.77;;;;;;;0.10;100.00;100142.57;3799649;77;391863;-74
2021/01/15 22:50:58;;;;;;;17.87;1.77;;;;;;;0.23;100.00;100151.19;3799553;77;383817;-75
2021/01/15 22:56:20;;;;;;;3.23;2.60;;;;;;;0.14;100.00;100149.52;3799385;77;394079;-75
2021/01/15 23:01:41;;;;;;;1.90;1.70;;;;;;;0.12;100.00;100147.66;3798840;77;396268;-75
2021/01/15 23:07:03;;;;;;;1.40;0.90;;;;;;;0.16;100.00;100146.75;3799674;77;393976;-75
2021/01/15 23:12:24;;;;;;;6.20;1.63;;;;;;;0.12;100.00;100144.96;3799053;77;393974;-75
2021/01/15 23:17:45;;;;;;;1.30;1.20;;;;;;;0.09;100.00;100150.97;3799300;77;395278;-75
2021/01/15 23:23:07;;;;;;;3.67;1.50;;;;;;;0.05;100.00;100146.73;3799626;77;396068;-75
2021/01/15 23:28:31;;;;;;;2.23;2.10;;;;;;;0.02;100.00;100147.89;3772579;77;385605;-75
2021/01/15 23:33:51;;;;;;;1.73;1.13;;;;;;;0.01;100.00;100151.69;3799977;77;393988;-75
2021/01/15 23:39:12;;;;;;;1.00;0.83;;;;;;;-0.02;100.00;100153.11;3800155;77;387801;-75
2021/01/15 23:44:34;;;;;;;2.70;2.50;;;;;;;0.02;100.00;100151.95;3798776;77;396150;-75
2021/01/15 23:49:55;;;;;;;1.13;1.03;;;;;;;-0.03;100.00;100149.37;3799144;77;395331;-75
2021/01/15 23:55:17;;;;;;;4.90;1.43;;;;;;;-0.01;100.00;100145.25;3772469;77;393937;-75
